Latest Coastal Weather Observations for Evans Head

IDN60701

Issued at 8:55 pm EST Monday 21 April 2014 (issued every 10 minutes, with the page automatically refreshed every 10 minutes)

About coastal observations | Map of coastal stations | Coastal observations for NSW | Marine services | Other Formats
Station Details ID: 058212 Name: EVANS HEAD RAAF BOMBING RANGE AWS Lat: -29.18 Lon: 153.40 Height: 62.5 m
Data from the previous 72 hours. | See also: Recent months at Evans Head
Date/Time
EST
Temp

°C
Wind Pressure Rain
since 9am
mm
Weather Cloud Vis
km
Sea
Height
m
Swell
Dir
 
Speed
knots
Gust
knots
hPa Trend Height
m
Period
s
Dir
21/08:30pm 20.1 N 10 13 1019.3 - 0.0 - - - - - - -
21/08:00pm 20.8 N 11 17 1019.0 - 0.0 - - - - - - -
21/07:30pm 20.9 CALM 0 0 1018.9 - 0.0 - - - - - - -
21/07:00pm 21.2 CALM 0 0 1018.6 - 0.0 - - - - - - -
21/06:30pm 21.4 CALM 0 0 1018.4 - 0.0 - - - - - - -
21/06:00pm 21.4 CALM 0 0 1017.8 - 0.0 - - - - - - -
21/05:30pm 21.9 CALM 0 0 1017.8 - 0.0 - - - - - - -
21/05:00pm 22.7 CALM 0 0 1017.6 - 0.0 - - - - - - -
21/04:30pm 24.0 CALM 0 0 1017.4 - 0.0 - - - - - - -
21/04:00pm 24.9 CALM 0 0 1017.3 - 0.0 - - - - - - -
21/03:30pm 26.0 CALM 0 0 1017.2 - 0.0 - - - - - - -
21/03:00pm 26.0 CALM 0 0 1017.2 - 0.0 - - - - - - -
21/02:30pm 26.6 CALM 0 0 1017.5 - 0.0 - - - - - - -
21/02:00pm 25.8 CALM 0 0 1017.7 - 0.0 - - - - - - -
21/01:30pm 26.5 CALM 0 0 1017.9 - 0.0 - - - - - - -
21/01:00pm 27.5 CALM 0 0 1018.1 - 0.0 - - - - - - -
21/12:30pm 28.7 CALM 0 0 1018.5 - 0.0 - - - - - - -
21/12:00pm 29.0 CALM 0 0 1018.9 - 0.0 - - - - - - -
21/11:30am 27.8 CALM 0 0 1019.6 - 0.0 - - - - - - -
21/11:00am 27.7 CALM 0 0 1020.0 - 0.0 - - - - - - -
21/10:30am 26.8 CALM 0 0 1020.3 - 0.0 - - - - - - -
21/10:00am 25.6 CALM 0 0 1020.5 - 0.0 - - - - - - -
21/09:30am 24.6 CALM 0 0 1020.6 - 0.0 - - - - - - -
21/09:00am 23.1 CALM 0 0 1020.4 - 0.0 - - - - - - -
21/08:30am 21.8 CALM 0 0 1020.5 - 0.0 - - - - - - -
21/08:00am 20.6 CALM 0 0 1020.4 - 0.0 - - - - - - -
21/07:30am 19.3 CALM 0 0 1020.0 - 0.0 - - - - - - -
21/07:00am 16.9 CALM 0 0 1019.7 - 0.0 - - - - - - -
21/06:30am 16.9 CALM 0 0 1019.3 - 0.0 - - - - - - -
21/06:00am 15.5 CALM 0 0 1018.8 - 0.0 - - - - - - -
21/05:30am 16.1 CALM 0 0 1018.8 - 0.0 - - - - - - -
21/05:00am 17.1 CALM 0 0 1018.7 - 0.0 - - - - - - -
21/04:30am 17.0 CALM 0 0 1018.3 - 0.0 - - - - - - -
21/04:00am 18.0 CALM 0 0 1018.1 - 0.0 - - - - - - -
21/03:30am 17.8 CALM 0 0 1017.8 - 0.0 - - - - - - -
21/03:00am 17.4 CALM 0 0 1017.5 - 0.0 - - - - - - -
21/02:30am 18.0 CALM 0 0 1017.6 - 0.0 - - - - - - -
21/02:00am 17.3 CALM 0 0 1017.9 - 0.0 - - - - - - -
21/01:30am 16.5 CALM 0 0 1017.9 - 0.0 - - - - - - -
21/01:00am 16.6 CALM 0 0 1017.9 - 0.0 - - - - - - -
21/12:30am 16.7 CALM 0 0 1017.8 - 0.0 - - - - - - -
21/12:00am 17.1 CALM 0 0 1017.7 - 0.0 - - - - - - -
 
Date/Time
EST
Temp

°C
Wind Pressure Rain
since 9am
mm
Weather Cloud Vis
km
Sea
Height
m
Swell
Dir
 
Speed
knots
Gust
knots
hPa Trend Height
m
Period
s
Dir
20/11:30pm 17.2 CALM 0 0 1017.7 - 0.0 - - - - - - -
20/11:00pm 17.2 CALM 0 0 1017.8 - 0.0 - - - - - - -
20/10:30pm 18.0 CALM 0 0 1017.9 - 0.0 - - - - - - -
20/10:00pm 18.4 CALM 0 0 1017.9 - 0.0 - - - - - - -
20/09:30pm 18.5 CALM 0 0 1017.9 - 0.0 - - - - - - -
20/09:00pm 18.9 CALM 0 0 1017.5 - 0.0 - - - - - - -
20/08:30pm 19.4 CALM 0 0 1017.5 - 0.0 - - - - - - -
20/08:00pm 19.6 CALM 0 0 1017.4 - 0.0 - - - - - - -
20/07:30pm 19.8 CALM 0 0 1017.3 - 0.0 - - - - - - -
20/07:00pm 20.1 CALM 0 0 1017.1 - 0.0 - - - - - - -
20/06:30pm 20.2 CALM 0 0 1016.9 - 0.0 - - - - - - -
20/06:00pm 20.3 CALM 0 0 1016.5 - 0.0 - - - - - - -
20/05:30pm 20.7 CALM 0 0 1016.3 - 0.0 - - - - - - -
20/05:00pm 21.5 CALM 0 0 1016.2 - 0.0 - - - - - - -
20/04:30pm 22.6 CALM 0 0 1016.0 - 0.0 - - - - - - -
20/04:00pm 23.4 CALM 0 0 1015.9 - 0.0 - - - - - - -
20/03:30pm 24.2 CALM 0 0 1015.8 - 0.0 - - - - - - -
20/03:00pm 24.2 CALM 0 0 1015.6 - 0.0 - - - - - - -
20/02:30pm 24.0 CALM 0 0 1015.8 - 0.0 - - - - - - -
20/02:00pm 23.8 CALM 0 0 1015.9 - 0.0 - - - - - - -
20/01:30pm 23.9 CALM 0 0 1016.1 - 0.0 - - - - - - -
20/01:00pm 23.8 CALM 0 0 1016.3 - 0.0 - - - - - - -
20/12:30pm 24.3 ESE 6 9 1016.6 - 0.0 - - - - - - -
20/12:00pm 24.8 NE 3 6 1016.8 - 0.0 - - - - - - -
20/11:30am 24.2 E 6 9 1017.5 - 0.0 - - - - - - -
20/11:00am 24.0 ESE 5 7 1018.1 - 0.0 - - - - - - -
20/10:30am 23.9 S 4 8 1018.4 - 0.0 - - - - - - -
20/10:00am 23.4 WSW 3 6 1018.6 - 0.0 - - - - - - -
20/09:30am 22.5 W 3 6 1018.5 - 0.0 - - - - - - -
20/09:00am 21.3 W 3 5 1018.4 - 0.0 - - - - - - -
20/08:30am 20.5 W 4 6 1018.5 - 0.0 - - - - - - -
20/08:00am 19.3 WNW 4 6 1018.3 - 0.0 - - - - - - -
20/07:30am 17.2 WNW 4 6 1018.1 - 0.0 - - - - - - -
20/07:00am 16.9 WNW 5 7 1017.6 - 0.0 - - - - - - -
20/06:30am 16.6 W 6 7 1017.4 - 0.0 - - - - - - -
20/06:00am 16.5 WSW 4 5 1017.0 - 0.0 - - - - - - -
20/05:30am 16.2 W 6 7 1016.9 - 0.0 - - - - - - -
20/05:00am 16.6 W 6 7 1016.6 - 0.0 - - - - - - -
20/04:30am 16.7 WSW 5 7 1016.3 - 0.0 - - - - - - -
20/04:00am 17.2 W 5 7 1016.1 - 0.0 - - - - - - -
20/03:30am 17.8 W 6 7 1016.0 - 0.0 - - - - - - -
20/03:00am 18.4 W 5 7 1016.0 - 0.0 - - - - - - -
20/02:30am 18.6 W 6 8 1016.3 - 0.0 - - - - - - -
20/02:00am 18.9 W 5 7 1016.2 - 0.0 - - - - - - -
20/01:30am 19.6 WSW 6 6 1016.3 - 0.0 - - - - - - -
20/01:00am 19.4 W 6 7 1016.4 - 0.0 - - - - - - -
20/12:30am 19.6 WSW 6 7 1016.4 - 0.0 - - - - - - -
20/12:00am 19.7 WSW 6 7 1016.4 - 0.0 - - - - - - -
 
Date/Time
EST
Temp

°C
Wind Pressure Rain
since 9am
mm
Weather Cloud Vis
km
Sea
Height
m
Swell
Dir
 
Speed
knots
Gust
knots
hPa Trend Height
m
Period
s
Dir
19/11:30pm 19.3 W 6 7 1016.7 - 0.0 - - - - - - -
19/11:00pm 19.4 W 4 5 1016.7 - 0.0 - - - - - - -
19/10:30pm 20.2 SSE 4 5 1016.7 - 0.0 - - - - - - -
19/10:00pm 20.8 ESE 6 7 1016.5 - 0.0 - - - - - - -
19/09:30pm 20.7 ESE 7 9 1016.5 - 0.0 - - - - - - -
19/09:00pm 20.6 ESE 7 9 1016.2 - 0.0 - - - - - - -
19/08:30pm 20.1 SE 7 8 1016.4 - 0.0 - - - - - - -
19/08:00pm 20.4 ESE 6 8 1016.2 - 0.0 - - - - - - -
19/07:30pm 20.1 ESE 6 8 1015.8 - 0.0 - - - - - - -
19/07:00pm 20.5 E 5 7 1015.4 - 0.0 - - - - - - -
19/06:30pm 20.5 ESE 7 9 1014.9 - 0.0 - - - - - - -
19/06:00pm 20.3 ESE 5 7 1014.4 - 0.0 - - - - - - -
19/05:30pm 20.4 ESE 6 7 1014.5 - 0.0 - - - - - - -
19/05:00pm 20.7 ESE 6 8 1014.1 - 0.0 - - - - - - -
19/04:30pm 21.6 SE 6 8 1013.8 - 0.0 - - - - - - -
19/04:00pm 22.6 ESE 6 9 1013.6 - 0.0 - - - - - - -
19/03:30pm 23.1 SE 8 11 1013.6 - 0.0 - - - - - - -
19/03:00pm 23.4 SE 8 11 1013.5 - 0.0 - - - - - - -
19/02:30pm 23.7 SE 9 11 1013.7 - 0.0 - - - - - - -
19/02:00pm 24.4 SE 10 13 1013.7 - 0.0 - - - - - - -
19/01:30pm 24.9 SSE 9 13 1013.8 - 0.0 - - - - - - -
19/01:00pm 25.1 S 11 16 1014.1 - 0.0 - - - - - - -
19/12:30pm 25.0 S 10 13 1014.6 - 0.0 - - - - - - -
19/12:00pm 24.7 S 8 12 1014.8 - 0.0 - - - - - - -
19/11:30am 24.6 SSW 8 13 1015.5 - 0.0 - - - - - - -
19/11:00am 24.6 SW 8 11 1015.8 - 0.0 - - - - - - -
19/10:30am 23.6 SW 8 12 1016.1 - 0.0 - - - - - - -
19/10:00am 22.9 SW 8 12 1016.3 - 0.0 - - - - - - -
19/09:30am 21.6 WSW 7 12 1016.4 - 0.0 - - - - - - -
19/09:00am 20.6 WSW 9 14 1016.3 - 0.0 - - - - - - -
19/08:30am 19.9 WSW 9 13 1016.6 - 0.0 - - - - - - -
19/08:00am 19.0 W 6 9 1016.5 - 0.0 - - - - - - -
19/07:30am 17.8 W 7 11 1016.4 - 0.0 - - - - - - -
19/07:00am 16.4 W 7 9 1016.2 - 0.0 - - - - - - -
19/06:30am 14.8 WNW 6 9 1016.1 - 0.0 - - - - - - -
19/06:00am 14.4 WNW 7 9 1015.7 - 0.0 - - - - - - -
19/05:30am 14.4 WNW 7 9 1015.8 - 0.0 - - - - - - -
19/05:00am 14.2 W 6 9 1015.6 - 0.0 - - - - - - -
19/04:30am 14.1 W 6 8 1015.4 - 0.0 - - - - - - -
19/04:00am 14.5 W 7 9 1015.2 - 0.0 - - - - - - -
19/03:30am 15.2 WNW 4 5 1015.0 - 0.0 - - - - - - -
19/03:00am 15.5 WNW 5 6 1014.8 - 0.0 - - - - - - -
19/02:30am 15.6 WNW 4 5 1015.1 - 0.0 - - - - - - -
19/02:00am 16.0 W 6 7 1015.3 - 0.0 - - - - - - -
19/01:30am 16.2 WSW 6 7 1015.4 - 0.0 - - - - - - -
19/01:00am 16.7 W 6 8 1015.5 - 0.0 - - - - - - -
19/12:30am 16.9 WNW 3 4 1015.6 - 0.0 - - - - - - -
19/12:00am 16.8 N 5 6 1015.4 - 0.0 - - - - - - -
 
Date/Time
EST
Temp

°C
Wind Pressure Rain
since 9am
mm
Weather Cloud Vis
km
Sea
Height
m
Swell
Dir
 
Speed
knots
Gust
knots
hPa Trend Height
m
Period
s
Dir
18/11:30pm 17.4 N 7 8 1015.7 - 0.0 - - - - - - -
18/11:00pm 16.7 N 7 9 1015.8 - 0.0 - - - - - - -
18/10:30pm 16.8 N 6 7 1015.8 - 0.0 - - - - - - -
18/10:00pm 17.4 N 6 8 1015.8 - 0.0 - - - - - - -
18/09:30pm 17.8 N 6 8 1015.8 - 0.0 - - - - - - -
18/09:00pm 17.8 N 6 8 1015.6 - 0.0 - - - - - - -

Other Formats:

Comma delimited format used in spreadsheet applications
http://www.bom.gov.au/fwo/IDN60701/IDN60701.94598.axf

JavaScript Object Notation format (JSON) in row-major order
http://www.bom.gov.au/fwo/IDN60701/IDN60701.94598.json